| time (UTC) | temp F | wind direction | speed MPH | gust MPH | rain 1hr in | rain 24hr in | rain mn in | humidity % | barometer mb |
| 20260507151058 | 57 | 119 | 2.0 | 7.0 | 0.00 | 0.00 | 0.00 | 61 | 1016.3 |
| 20260507150054 | 57 | 57 | 3.0 | 6.0 | 0.00 | 0.00 | 0.00 | 59 | 1016.3 |
| 20260507145102 | 57 | 54 | 3.0 | 8.0 | 0.00 | 0.00 | 0.00 | 60 | 1016.4 |
| 20260507144054 | 57 | 48 | 3.0 | 6.0 | 0.00 | 0.00 | 0.00 | 63 | 1016.3 |
| 20260507143059 | 57 | 76 | 4.0 | 8.0 | 0.00 | 0.00 | 0.00 | 67 | 1016.4 |
| 20260507142053 | 57 | 33 | 3.0 | 8.0 | 0.00 | 0.00 | 0.00 | 63 | 1016.5 |
| 20260507133102 | 56 | 294 | 2.0 | 4.0 | 0.00 | 0.00 | 0.00 | 66 | 1016.6 |
| 20260507132050 | 56 | 50 | 2.0 | 4.0 | 0.00 | 0.00 | 0.00 | 66 | 1016.6 |
| 20260507131059 | 56 | 11 | 1.0 | 3.0 | 0.00 | 0.00 | 0.00 | 63 | 1016.7 |
| 20260507125059 | 55 | 86 | 4.0 | 8.0 | 0.00 | 0.00 | 0.00 | 68 | 1016.7 |
| 20260507124059 | 55 | 125 | 3.0 | 5.0 | 0.00 | 0.00 | 0.00 | 68 | 1016.7 |
| 20260507123102 | 55 | 119 | 3.0 | 5.0 | 0.00 | 0.00 | 0.00 | 70 | 1016.7 |
| 20260507122056 | 55 | 88 | 3.0 | 6.0 | 0.00 | 0.00 | 0.00 | 71 | 1016.7 |
| 20260507121051 | 55 | 71 | 2.0 | 4.0 | 0.00 | 0.00 | 0.00 | 69 | 1016.6 |
| 20260507120100 | 55 | 19 | 2.0 | 4.0 | 0.00 | 0.00 | 0.00 | 68 | 1016.6 |
| 20260507115056 | 55 | 0 | 2.0 | 5.0 | 0.00 | 0.00 | 0.00 | 67 | 1016.6 |
| 20260507114055 | 54 | 351 | 5.0 | 7.0 | 0.00 | 0.00 | 0.00 | 68 | 1016.6 |
| 20260507113057 | 54 | 351 | 4.0 | 6.0 | 0.00 | 0.00 | 0.00 | 69 | 1016.5 |
| 20260507112101 | 54 | 330 | 4.0 | 6.0 | 0.00 | 0.00 | 0.00 | 68 | 1016.6 |
| 20260507111058 | 55 | 334 | 5.0 | 7.0 | 0.00 | 0.00 | 0.00 | 67 | 1016.6 |
| 20260507105100 | 55 | 97 | 3.0 | 5.0 | 0.00 | 0.00 | 0.00 | 71 | 1016.5 |
| 20260507104057 | 55 | 186 | 1.0 | 4.0 | 0.00 | 0.00 | 0.00 | 71 | 1016.5 |
| 20260507102057 | 53 | 351 | 3.0 | 6.0 | 0.00 | 0.00 | 0.00 | 71 | 1016.7 |
| 20260507101100 | 53 | 355 | 4.0 | 7.0 | 0.00 | 0.00 | 0.00 | 72 | 1016.6 |
| 20260507100100 | 53 | 318 | 5.0 | 7.0 | 0.00 | 0.00 | 0.00 | 72 | 1016.5 |
| 20260507095055 | 53 | 333 | 5.0 | 6.0 | 0.00 | 0.00 | 0.00 | 72 | 1016.5 |
| 20260507094056 | 53 | 304 | 5.0 | 7.0 | 0.00 | 0.01 | 0.00 | 73 | 1016.4 |
| 20260507093057 | 53 | 350 | 5.0 | 8.0 | 0.00 | 0.01 | 0.00 | 72 | 1016.4 |
| 20260507092100 | 53 | 338 | 5.0 | 8.0 | 0.00 | 0.02 | 0.00 | 73 | 1016.3 |
| 20260507091056 | 52 | 318 | 4.0 | 11.0 | 0.00 | 0.02 | 0.00 | 75 | 1016.4 |
| 20260507090058 | 52 | 311 | 3.0 | 7.0 | 0.00 | 0.02 | 0.00 | 75 | 1016.4 |
| 20260507085059 | 51 | 332 | 3.0 | 6.0 | 0.00 | 0.03 | 0.00 | 75 | 1016.4 |
| 20260507084059 | 51 | 325 | 3.0 | 6.0 | 0.00 | 0.04 | 0.00 | 77 | 1016.4 |
| 20260507083102 | 51 | 306 | 4.0 | 7.0 | 0.00 | 0.04 | 0.00 | 79 | 1016.3 |
| 20260507082057 | 51 | 297 | 4.0 | 7.0 | 0.00 | 0.04 | 0.00 | 80 | 1016.2 |
| 20260507081102 | 50 | 299 | 4.0 | 7.0 | 0.00 | 0.05 | 0.00 | 81 | 1016.2 |
| 20260507075101 | 50 | 299 | 4.0 | 6.0 | 0.00 | 0.06 | 0.00 | 84 | 1016.1 |
| 20260507074100 | 50 | 320 | 2.0 | 4.0 | 0.00 | 0.06 | 0.00 | 84 | 1016.1 |
| 20260507072058 | 49 | 298 | 2.0 | 4.0 | 0.00 | 0.07 | 0.00 | 84 | 1016.0 |
| 20260507071059 | 49 | 309 | 3.0 | 6.0 | 0.00 | 0.07 | 0.00 | 84 | 1016.0 |
| 20260507070057 | 48 | 346 | 2.0 | 4.0 | 0.00 | 0.08 | 0.00 | 84 | 1015.9 |
| 20260507065055 | 48 | 318 | 2.0 | 4.0 | 0.00 | 0.08 | 0.00 | 86 | 1015.9 |
| 20260507064057 | 48 | 307 | 2.0 | 4.0 | 0.00 | 0.08 | 0.00 | 86 | 1015.9 |
| 20260507063054 | 47 | 306 | 1.0 | 2.0 | 0.00 | 0.09 | 0.00 | 87 | 1015.7 |
| 20260507062057 | 47 | 292 | 2.0 | 3.0 | 0.00 | 0.09 | 0.00 | 88 | 1015.7 |
| 20260507061058 | 47 | 280 | 2.0 | 3.0 | 0.00 | 0.09 | 0.00 | 90 | 1015.6 |
| 20260507060056 | 47 | 280 | 2.0 | 3.0 | 0.00 | 0.10 | 0.00 | 91 | 1015.5 |
| 20260507055052 | 46 | 284 | 2.0 | 3.0 | 0.00 | 0.11 | 0.00 | 92 | 1015.4 |
| 20260507053054 | 46 | 270 | 2.0 | 3.0 | 0.00 | 0.13 | 0.00 | 94 | 1015.3 |
| 20260507052057 | 45 | 257 | 2.0 | 3.0 | 0.00 | 0.15 | 0.00 | 95 | 1015.2 |
| 20260507051057 | 45 | 229 | 1.0 | 3.0 | 0.00 | 0.17 | 0.00 | 95 | 1015.1 |
| 20260507050056 | 45 | 257 | 2.0 | 3.0 | 0.00 | 0.17 | 0.00 | 95 | 1015.0 |
| 20260507045058 | 45 | 257 | 2.0 | 3.0 | 0.00 | 0.19 | 0.00 | 95 | 1014.9 |
| 20260507044058 | 45 | 249 | 3.0 | 4.0 | 0.00 | 0.20 | 0.00 | 95 | 1014.8 |
| 20260507043058 | 45 | 250 | 2.0 | 3.0 | 0.00 | 0.20 | 0.00 | 94 | 1014.7 |
| 20260507042059 | 45 | 277 | 0.0 | 0.0 | 0.00 | 0.21 | 0.00 | 95 | 1014.7 |
| 20260507041055 | 45 | 286 | 0.0 | 0.0 | 0.00 | 0.22 | 0.00 | 95 | 1014.6 |
| 20260507040058 | 45 | 302 | 1.0 | 2.0 | 0.00 | 0.23 | 0.00 | 95 | 1014.5 |
| 20260507035057 | 45 | 300 | 2.0 | 3.0 | 0.00 | 0.23 | 0.00 | 95 | 1014.5 |
| 20260507034056 | 45 | 247 | 2.0 | 3.0 | 0.00 | 0.24 | 0.00 | 94 | 1014.5 |
| 20260507033056 | 45 | 233 | 2.0 | 3.0 | 0.00 | 0.24 | 0.00 | 94 | 1014.5 |
| 20260507032058 | 45 | 240 | 2.0 | 3.0 | 0.00 | 0.24 | 0.00 | 94 | 1014.4 |
| 20260507031056 | 45 | 238 | 3.0 | 3.0 | 0.00 | 0.24 | 0.00 | 94 | 1014.3 |
| 20260507030056 | 45 | 231 | 2.0 | 3.0 | 0.00 | 0.25 | 0.00 | 93 | 1014.3 |
| 20260507025055 | 45 | 238 | 3.0 | 4.0 | 0.00 | 0.25 | 0.00 | 92 | 1014.2 |
| 20260507024055 | 45 | 265 | 3.0 | 4.0 | 0.00 | 0.25 | 0.00 | 91 | 1014.2 |
| 20260507023054 | 45 | 18 | 1.0 | 3.0 | 0.00 | 0.26 | 0.00 | 90 | 1014.2 |
| 20260507022057 | 45 | 5 | 2.0 | 3.0 | 0.00 | 0.26 | 0.00 | 91 | 1014.1 |
| 20260507021058 | 45 | 30 | 2.0 | 3.0 | 0.00 | 0.27 | 0.00 | 91 | 1014.0 |
| 20260507020057 | 45 | 30 | 3.0 | 5.0 | 0.00 | 0.28 | 0.00 | 91 | 1013.9 |
| 20260507015055 | 46 | 45 | 4.0 | 6.0 | 0.00 | 0.28 | 0.00 | 91 | 1013.8 |
| 20260507014057 | 46 | 48 | 5.0 | 7.0 | 0.00 | 0.28 | 0.00 | 91 | 1013.9 |
| 20260507013054 | 46 | 49 | 6.0 | 8.0 | 0.00 | 0.28 | 0.00 | 92 | 1013.9 |
| 20260507012053 | 46 | 47 | 5.0 | 8.0 | 0.00 | 0.29 | 0.00 | 93 | 1013.9 |
| 20260507011059 | 46 | 24 | 4.0 | 8.0 | 0.00 | 0.29 | 0.00 | 93 | 1013.9 |
| 20260507010100 | 46 | 4 | 4.0 | 6.0 | 0.00 | 0.30 | 0.00 | 94 | 1013.8 |
| 20260507005056 | 46 | 355 | 3.0 | 5.0 | 0.00 | 0.30 | 0.00 | 94 | 1013.8 |
| 20260507004058 | 46 | 340 | 3.0 | 4.0 | 0.00 | 0.31 | 0.00 | 94 | 1013.8 |
| 20260507003056 | 46 | 346 | 3.0 | 4.0 | 0.00 | 0.31 | 0.00 | 94 | 1013.7 |
| 20260507002057 | 46 | 348 | 3.0 | 4.0 | 0.00 | 0.33 | 0.00 | 94 | 1013.7 |
| 20260506235107 | 46 | 350 | 2.0 | 3.0 | 0.00 | 0.35 | 0.00 | 93 | 1013.6 |
| 20260506234106 | 46 | 357 | 2.0 | 3.0 | 0.00 | 0.36 | 0.00 | 93 | 1013.5 |
| 20260506233106 | 46 | 20 | 2.0 | 3.0 | 0.00 | 0.37 | 0.00 | 93 | 1013.4 |
| 20260506232105 | 46 | 9 | 3.0 | 5.0 | 0.00 | 0.38 | 0.00 | 93 | 1013.4 |
| 20260506231107 | 46 | 24 | 3.0 | 5.0 | 0.00 | 0.39 | 0.00 | 93 | 1013.4 |
| 20260506230107 | 46 | 355 | 3.0 | 4.0 | 0.00 | 0.39 | 0.00 | 92 | 1013.3 |
| 20260506225105 | 46 | 342 | 3.0 | 4.0 | 0.00 | 0.40 | 0.00 | 92 | 1013.3 |
| 20260506224107 | 46 | 337 | 3.0 | 4.0 | 0.00 | 0.42 | 0.00 | 92 | 1013.2 |
| 20260506223106 | 46 | 338 | 3.0 | 4.0 | 0.00 | 0.43 | 0.00 | 92 | 1013.1 |
| 20260506221105 | 45 | 337 | 5.0 | 6.0 | 0.00 | 0.43 | 0.00 | 91 | 1013.0 |
| 20260506220116 | 45 | 338 | 5.0 | 6.0 | 0.00 | 0.44 | 0.00 | 90 | 1012.9 |
| 20260506214112 | 45 | 331 | 5.0 | 7.0 | 0.00 | 0.46 | 0.44 | 88 | 1012.7 |
| 20260506213111 | 46 | 331 | 4.0 | 6.0 | 0.00 | 0.46 | 0.44 | 87 | 1012.7 |
| 20260506212114 | 46 | 358 | 3.0 | 6.0 | 0.00 | 0.47 | 0.44 | 86 | 1012.6 |
| 20260506211114 | 46 | 12 | 5.0 | 8.0 | 0.00 | 0.48 | 0.44 | 85 | 1012.5 |
| 20260506210113 | 46 | 14 | 6.0 | 11.0 | 0.00 | 0.49 | 0.44 | 85 | 1012.4 |
| 20260506205109 | 46 | 13 | 6.0 | 10.0 | 0.00 | 0.50 | 0.44 | 84 | 1012.3 |
| 20260506203111 | 47 | 6 | 6.0 | 9.0 | 0.00 | 0.51 | 0.44 | 82 | 1012.2 |
| 20260506202114 | 47 | 6 | 4.0 | 8.0 | 0.00 | 0.51 | 0.44 | 82 | 1012.1 |
| 20260506200112 | 48 | 20 | 4.0 | 6.0 | 0.00 | 0.53 | 0.44 | 80 | 1012.0 |
| 20260506195112 | 48 | 30 | 4.0 | 6.0 | 0.00 | 0.54 | 0.44 | 80 | 1011.8 |
| 20260506194113 | 49 | 19 | 5.0 | 8.0 | 0.00 | 0.54 | 0.44 | 79 | 1011.7 |
| 20260506193117 | 50 | 11 | 5.0 | 8.0 | 0.00 | 0.55 | 0.44 | 78 | 1011.6 |
| 20260506192113 | 50 | 23 | 4.0 | 7.0 | 0.00 | 0.56 | 0.44 | 80 | 1011.4 |
| 20260506191111 | 51 | 18 | 4.0 | 7.0 | 0.00 | 0.56 | 0.44 | 79 | 1011.4 |
| 20260506190112 | 51 | 22 | 4.0 | 6.0 | 0.00 | 0.57 | 0.44 | 78 | 1011.2 |
| 20260506185112 | 51 | 19 | 4.0 | 8.0 | 0.00 | 0.57 | 0.44 | 78 | 1011.1 |
| 20260506184104 | 51 | 23 | 4.0 | 6.0 | 0.00 | 0.58 | 0.44 | 78 | 1011.0 |
| 20260506183110 | 51 | 48 | 3.0 | 6.0 | 0.00 | 0.58 | 0.44 | 79 | 1010.9 |
| 20260506182113 | 51 | 45 | 4.0 | 6.0 | 0.00 | 0.59 | 0.44 | 79 | 1010.8 |
| 20260506181102 | 52 | 41 | 5.0 | 9.0 | 0.00 | 0.60 | 0.44 | 79 | 1010.6 |
| 20260506180111 | 52 | 36 | 5.0 | 9.0 | 0.00 | 0.61 | 0.44 | 78 | 1010.5 |
| 20260506175110 | 52 | 17 | 4.0 | 7.0 | 0.00 | 0.61 | 0.44 | 78 | 1010.3 |
| 20260506174106 | 52 | 12 | 4.0 | 9.0 | 0.00 | 0.62 | 0.44 | 79 | 1010.2 |
| 20260506173105 | 52 | 11 | 3.0 | 6.0 | 0.00 | 0.63 | 0.44 | 79 | 1010.1 |
| 20260506172110 | 52 | 8 | 3.0 | 4.0 | 0.00 | 0.63 | 0.44 | 80 | 1010.1 |
| 20260506171105 | 53 | 14 | 2.0 | 3.0 | 0.00 | 0.64 | 0.44 | 79 | 1009.9 |
| 20260506170100 | 53 | 23 | 4.0 | 6.0 | 0.00 | 0.65 | 0.44 | 80 | 1009.9 |
| 20260506165103 | 53 | 6 | 4.0 | 6.0 | 0.00 | 0.65 | 0.44 | 79 | 1009.9 |
| 20260506164058 | 53 | 314 | 6.0 | 9.0 | 0.00 | 0.65 | 0.44 | 79 | 1009.7 |
| 20260506163033 | 53 | 316 | 6.0 | 9.0 | 0.00 | 0.65 | 0.44 | 78 | 1009.7 |
| 20260506162104 | 53 | 316 | 7.0 | 10.0 | 0.00 | 0.65 | 0.44 | 78 | 1009.8 |
| 20260506161103 | 53 | 333 | 8.0 | 10.0 | 0.00 | 0.65 | 0.44 | 76 | 1009.7 |
| 20260506160033 | 53 | 334 | 8.0 | 10.0 | 0.00 | 0.65 | 0.44 | 76 | 1009.7 |
| 20260506155051 | 54 | 334 | 8.0 | 10.0 | 0.00 | 0.65 | 0.44 | 76 | 1009.7 |
| 20260506154045 | 54 | 333 | 7.0 | 12.0 | 0.00 | 0.65 | 0.44 | 77 | 1009.6 |
| 20260506153052 | 54 | 333 | 7.0 | 12.0 | 0.00 | 0.65 | 0.44 | 78 | 1009.6 |